sensor_id;sensor_type;location;lat;lon;timestamp;noise_LAeq;noise_LA_min;noise_LA_max;noise_LA01;noise_LA95
43787;Laerm;29409;49.306;8.500;2023-04-10T00:00:05;37.85;33.90;40.80;;
43787;Laerm;29409;49.306;8.500;2023-04-10T00:01:06;38.15;33.90;40.53;;
43787;Laerm;29409;49.306;8.500;2023-04-10T00:02:06;39.08;35.04;44.43;;
43787;Laerm;29409;49.306;8.500;2023-04-10T00:03:06;40.07;34.69;45.63;;
43787;Laerm;29409;49.306;8.500;2023-04-10T00:04:06;38.52;33.44;41.89;;
43787;Laerm;29409;49.306;8.500;2023-04-10T00:05:07;38.01;33.90;40.80;;
43787;Laerm;29409;49.306;8.500;2023-04-10T00:06:08;39.13;33.90;46.97;;
43787;Laerm;29409;49.306;8.500;2023-04-10T00:07:08;39.22;35.36;41.61;;
43787;Laerm;29409;49.306;8.500;2023-04-10T00:08:08;38.45;33.90;41.30;;
43787;Laerm;29409;49.306;8.500;2023-04-10T00:09:09;37.93;31.68;41.14;;
43787;Laerm;29409;49.306;8.500;2023-04-10T00:10:09;37.81;32.35;42.53;;
43787;Laerm;29409;49.306;8.500;2023-04-10T00:11:09;40.18;34.69;48.40;;
43787;Laerm;29409;49.306;8.500;2023-04-10T00:12:10;38.12;33.90;41.53;;
43787;Laerm;29409;49.306;8.500;2023-04-10T00:13:10;38.11;33.44;41.30;;
43787;Laerm;29409;49.306;8.500;2023-04-10T00:14:10;39.39;35.04;43.39;;
43787;Laerm;29409;49.306;8.500;2023-04-10T00:15:11;39.85;34.31;48.32;;
43787;Laerm;29409;49.306;8.500;2023-04-10T00:16:11;37.68;30.89;40.03;;
43787;Laerm;29409;49.306;8.500;2023-04-10T00:17:11;37.82;32.58;40.18;;
43787;Laerm;29409;49.306;8.500;2023-04-10T00:18:11;37.90;33.44;40.43;;
43787;Laerm;29409;49.306;8.500;2023-04-10T00:19:11;37.78;33.44;40.53;;
43787;Laerm;29409;49.306;8.500;2023-04-10T00:20:12;38.52;34.31;41.06;;
43787;Laerm;29409;49.306;8.500;2023-04-10T00:21:12;37.72;31.68;40.53;;
43787;Laerm;29409;49.306;8.500;2023-04-10T00:22:12;38.03;33.44;40.98;;
43787;Laerm;29409;49.306;8.500;2023-04-10T00:23:13;38.18;34.31;40.53;;
43787;Laerm;29409;49.306;8.500;2023-04-10T00:24:13;38.33;34.31;41.22;;
43787;Laerm;29409;49.306;8.500;2023-04-10T00:25:13;37.99;33.90;41.06;;
43787;Laerm;29409;49.306;8.500;2023-04-10T00:26:13;38.71;32.93;42.65;;
43787;Laerm;29409;49.306;8.500;2023-04-10T00:27:14;37.53;32.93;40.62;;
43787;Laerm;29409;49.306;8.500;2023-04-10T00:28:14;37.98;33.44;40.71;;
43787;Laerm;29409;49.306;8.500;2023-04-10T00:29:16;37.80;33.90;40.23;;
43787;Laerm;29409;49.306;8.500;2023-04-10T00:30:16;38.58;34.69;45.54;;
43787;Laerm;29409;49.306;8.500;2023-04-10T00:31:16;38.10;33.90;47.16;;
43787;Laerm;29409;49.306;8.500;2023-04-10T00:32:17;38.94;34.31;54.32;;
43787;Laerm;29409;49.306;8.500;2023-04-10T00:33:17;37.75;32.93;40.33;;
43787;Laerm;29409;49.306;8.500;2023-04-10T00:34:17;37.65;33.44;40.13;;
43787;Laerm;29409;49.306;8.500;2023-04-10T00:35:17;37.92;32.35;41.14;;
43787;Laerm;29409;49.306;8.500;2023-04-10T00:36:18;38.08;33.44;42.59;;
43787;Laerm;29409;49.306;8.500;2023-04-10T00:37:18;38.03;33.44;41.46;;
43787;Laerm;29409;49.306;8.500;2023-04-10T00:38:19;38.57;34.31;40.89;;
43787;Laerm;29409;49.306;8.500;2023-04-10T00:39:19;38.03;33.90;40.71;;
43787;Laerm;29409;49.306;8.500;2023-04-10T00:40:19;37.91;33.44;40.80;;
43787;Laerm;29409;49.306;8.500;2023-04-10T00:41:20;38.09;32.93;41.46;;
43787;Laerm;29409;49.306;8.500;2023-04-10T00:42:22;38.04;33.44;40.80;;
43787;Laerm;29409;49.306;8.500;2023-04-10T00:43:23;38.00;33.44;40.62;;
43787;Laerm;29409;49.306;8.500;2023-04-10T00:44:23;38.73;35.04;41.75;;
43787;Laerm;29409;49.306;8.500;2023-04-10T00:45:23;39.40;32.35;48.77;;
43787;Laerm;29409;49.306;8.500;2023-04-10T00:46:24;38.23;34.31;41.94;;
43787;Laerm;29409;49.306;8.500;2023-04-10T00:47:24;38.32;34.31;40.98;;
43787;Laerm;29409;49.306;8.500;2023-04-10T00:48:25;38.28;34.31;40.98;;
43787;Laerm;29409;49.306;8.500;2023-04-10T00:49:25;38.26;33.44;40.98;;
43787;Laerm;29409;49.306;8.500;2023-04-10T00:50:25;37.98;34.31;40.62;;
43787;Laerm;29409;49.306;8.500;2023-04-10T00:51:26;38.28;33.44;40.80;;
43787;Laerm;29409;49.306;8.500;2023-04-10T00:52:26;37.95;34.31;40.62;;
43787;Laerm;29409;49.306;8.500;2023-04-10T00:53:27;37.99;34.31;40.53;;
43787;Laerm;29409;49.306;8.500;2023-04-10T00:54:27;41.13;34.31;52.75;;
43787;Laerm;29409;49.306;8.500;2023-04-10T00:55:28;38.02;34.31;40.98;;
43787;Laerm;29409;49.306;8.500;2023-04-10T00:56:31;39.06;34.69;48.66;;
43787;Laerm;29409;49.306;8.500;2023-04-10T00:57:32;37.74;33.90;45.94;;
43787;Laerm;29409;49.306;8.500;2023-04-10T00:58:32;40.11;33.90;49.94;;
43787;Laerm;29409;49.306;8.500;2023-04-10T00:59:33;38.06;32.93;43.58;;
43787;Laerm;29409;49.306;8.500;2023-04-10T01:00:34;37.71;30.89;40.80;;
43787;Laerm;29409;49.306;8.500;2023-04-10T01:01:34;37.96;32.93;40.71;;
43787;Laerm;29409;49.306;8.500;2023-04-10T01:02:34;38.23;34.31;41.06;;
43787;Laerm;29409;49.306;8.500;2023-04-10T01:03:35;38.03;33.09;40.80;;
43787;Laerm;29409;49.306;8.500;2023-04-10T01:04:37;37.96;34.31;41.41;;
43787;Laerm;29409;49.306;8.500;2023-04-10T01:05:44;37.59;33.90;40.13;;
43787;Laerm;29409;49.306;8.500;2023-04-10T01:07:50;37.86;33.44;40.80;;
43787;Laerm;29409;49.306;8.500;2023-04-10T01:12:24;38.22;33.90;41.14;;
43787;Laerm;29409;49.306;8.500;2023-04-10T01:13:26;38.98;32.35;46.59;;
43787;Laerm;29409;49.306;8.500;2023-04-10T01:15:35;38.25;32.93;41.46;;
43787;Laerm;29409;49.306;8.500;2023-04-10T01:16:51;37.64;32.93;40.43;;
43787;Laerm;29409;49.306;8.500;2023-04-10T01:18:56;37.37;31.68;40.23;;
43787;Laerm;29409;49.306;8.500;2023-04-10T01:20:59;37.75;32.93;41.53;;
43787;Laerm;29409;49.306;8.500;2023-04-10T01:22:01;37.54;32.35;39.92;;
43787;Laerm;29409;49.306;8.500;2023-04-10T01:29:04;39.14;32.35;44.04;;
43787;Laerm;29409;49.306;8.500;2023-04-10T01:30:07;38.68;33.90;41.61;;
43787;Laerm;29409;49.306;8.500;2023-04-10T01:31:12;38.82;32.93;44.43;;
43787;Laerm;29409;49.306;8.500;2023-04-10T01:32:16;39.08;32.58;46.43;;
43787;Laerm;29409;49.306;8.500;2023-04-10T01:33:17;37.72;32.93;40.71;;
43787;Laerm;29409;49.306;8.500;2023-04-10T01:34:42;37.59;33.44;40.53;;
43787;Laerm;29409;49.306;8.500;2023-04-10T01:35:40;37.73;32.93;40.43;;
43787;Laerm;29409;49.306;8.500;2023-04-10T01:36:46;37.54;32.93;39.92;;
43787;Laerm;29409;49.306;8.500;2023-04-10T01:37:47;37.74;31.68;40.71;;
43787;Laerm;29409;49.306;8.500;2023-04-10T01:38:49;38.67;33.90;42.09;;
43787;Laerm;29409;49.306;8.500;2023-04-10T01:39:58;43.10;33.44;57.31;;
43787;Laerm;29409;49.306;8.500;2023-04-10T01:41:00;37.51;32.35;40.13;;
43787;Laerm;29409;49.306;8.500;2023-04-10T01:42:00;37.65;33.90;40.33;;
43787;Laerm;29409;49.306;8.500;2023-04-10T01:43:02;39.75;35.04;46.55;;
43787;Laerm;29409;49.306;8.500;2023-04-10T01:44:05;38.11;34.31;40.98;;
43787;Laerm;29409;49.306;8.500;2023-04-10T01:45:06;37.62;32.93;40.33;;
43787;Laerm;29409;49.306;8.500;2023-04-10T01:46:08;37.49;32.93;40.71;;
43787;Laerm;29409;49.306;8.500;2023-04-10T01:47:09;37.69;32.93;41.22;;
43787;Laerm;29409;49.306;8.500;2023-04-10T01:48:09;37.68;33.44;40.43;;
43787;Laerm;29409;49.306;8.500;2023-04-10T01:49:10;37.70;30.89;40.13;;
43787;Laerm;29409;49.306;8.500;2023-04-10T01:50:11;37.63;33.09;40.45;;
43787;Laerm;29409;49.306;8.500;2023-04-10T01:51:12;38.42;33.44;41.61;;
43787;Laerm;29409;49.306;8.500;2023-04-10T01:52:13;39.63;32.35;47.68;;
43787;Laerm;29409;49.306;8.500;2023-04-10T01:53:14;37.61;31.68;40.23;;
43787;Laerm;29409;49.306;8.500;2023-04-10T01:54:15;37.56;32.58;40.23;;
43787;Laerm;29409;49.306;8.500;2023-04-10T01:55:16;37.72;32.35;40.62;;
43787;Laerm;29409;49.306;8.500;2023-04-10T01:56:16;37.97;32.35;40.80;;
43787;Laerm;29409;49.306;8.500;2023-04-10T01:57:17;37.74;29.92;40.54;;
43787;Laerm;29409;49.306;8.500;2023-04-10T01:58:18;38.65;32.93;45.57;;
43787;Laerm;29409;49.306;8.500;2023-04-10T01:59:19;37.77;32.93;40.53;;
43787;Laerm;29409;49.306;8.500;2023-04-10T02:00:19;37.62;33.44;40.71;;
43787;Laerm;29409;49.306;8.500;2023-04-10T02:01:20;37.46;32.35;40.43;;
43787;Laerm;29409;49.306;8.500;2023-04-10T02:02:20;37.70;32.35;40.13;;
43787;Laerm;29409;49.306;8.500;2023-04-10T02:03:21;37.76;32.93;40.33;;
43787;Laerm;29409;49.306;8.500;2023-04-10T02:04:21;37.73;33.44;40.43;;
43787;Laerm;29409;49.306;8.500;2023-04-10T02:05:21;38.25;34.31;42.03;;
43787;Laerm;29409;49.306;8.500;2023-04-10T02:06:36;37.73;32.93;40.33;;
43787;Laerm;29409;49.306;8.500;2023-04-10T02:07:43;39.48;34.31;42.71;;
43787;Laerm;29409;49.306;8.500;2023-04-10T02:08:50;38.08;30.89;42.88;;
43787;Laerm;29409;49.306;8.500;2023-04-10T02:10:10;37.87;33.90;40.43;;
43787;Laerm;29409;49.306;8.500;2023-04-10T02:11:14;39.10;33.44;47.32;;
43787;Laerm;29409;49.306;8.500;2023-04-10T02:12:27;37.97;32.35;41.06;;
43787;Laerm;29409;49.306;8.500;2023-04-10T02:13:29;37.99;33.44;40.98;;
43787;Laerm;29409;49.306;8.500;2023-04-10T02:14:31;38.34;33.90;40.98;;
43787;Laerm;29409;49.306;8.500;2023-04-10T02:15:32;38.30;33.44;41.61;;
43787;Laerm;29409;49.306;8.500;2023-04-10T02:16:33;38.61;34.31;42.29;;
43787;Laerm;29409;49.306;8.500;2023-04-10T02:17:35;44.48;35.66;57.79;;
43787;Laerm;29409;49.306;8.500;2023-04-10T02:18:36;38.16;32.93;42.76;;
43787;Laerm;29409;49.306;8.500;2023-04-10T02:19:37;37.68;33.90;40.43;;
43787;Laerm;29409;49.306;8.500;2023-04-10T02:20:39;37.66;32.35;40.80;;
43787;Laerm;29409;49.306;8.500;2023-04-10T02:21:40;37.55;33.44;40.13;;
43787;Laerm;29409;49.306;8.500;2023-04-10T02:22:41;38.28;32.93;41.46;;
43787;Laerm;29409;49.306;8.500;2023-04-10T02:23:44;38.00;33.44;40.43;;
43787;Laerm;29409;49.306;8.500;2023-04-10T02:24:44;38.16;34.31;41.82;;
43787;Laerm;29409;49.306;8.500;2023-04-10T02:25:45;38.40;34.69;41.14;;
43787;Laerm;29409;49.306;8.500;2023-04-10T02:27:45;37.89;33.44;40.80;;
43787;Laerm;29409;49.306;8.500;2023-04-10T02:28:46;37.55;32.93;40.53;;
43787;Laerm;29409;49.306;8.500;2023-04-10T02:29:46;38.26;34.69;43.14;;
43787;Laerm;29409;49.306;8.500;2023-04-10T02:30:46;38.03;34.31;40.71;;
43787;Laerm;29409;49.306;8.500;2023-04-10T02:31:46;37.84;33.44;40.71;;
43787;Laerm;29409;49.306;8.500;2023-04-10T02:32:47;38.53;33.90;43.68;;
43787;Laerm;29409;49.306;8.500;2023-04-10T02:33:48;39.03;35.04;42.47;;
43787;Laerm;29409;49.306;8.500;2023-04-10T02:34:48;38.10;33.44;42.29;;
43787;Laerm;29409;49.306;8.500;2023-04-10T02:35:48;38.19;33.90;41.30;;
43787;Laerm;29409;49.306;8.500;2023-04-10T02:36:49;37.96;33.44;40.98;;
43787;Laerm;29409;49.306;8.500;2023-04-10T02:37:49;38.03;33.44;40.89;;
43787;Laerm;29409;49.306;8.500;2023-04-10T02:38:49;38.22;33.55;40.80;;
43787;Laerm;29409;49.306;8.500;2023-04-10T02:39:50;38.34;33.44;41.81;;
43787;Laerm;29409;49.306;8.500;2023-04-10T02:40:50;39.13;33.90;41.89;;
43787;Laerm;29409;49.306;8.500;2023-04-10T02:41:50;39.21;34.69;41.96;;
43787;Laerm;29409;49.306;8.500;2023-04-10T02:42:51;39.23;34.69;43.19;;
43787;Laerm;29409;49.306;8.500;2023-04-10T02:43:51;39.06;33.90;41.68;;
43787;Laerm;29409;49.306;8.500;2023-04-10T02:44:51;39.10;35.04;42.09;;
43787;Laerm;29409;49.306;8.500;2023-04-10T02:45:51;38.99;34.31;41.53;;
43787;Laerm;29409;49.306;8.500;2023-04-10T02:46:52;39.16;34.69;42.03;;
43787;Laerm;29409;49.306;8.500;2023-04-10T02:47:52;39.15;35.36;42.03;;
43787;Laerm;29409;49.306;8.500;2023-04-10T02:48:52;39.34;35.94;42.03;;
43787;Laerm;29409;49.306;8.500;2023-04-10T02:49:53;39.10;35.36;42.09;;
43787;Laerm;29409;49.306;8.500;2023-04-10T02:50:56;39.55;35.04;52.42;;
43787;Laerm;29409;49.306;8.500;2023-04-10T02:51:57;43.41;34.69;57.70;;
43787;Laerm;29409;49.306;8.500;2023-04-10T02:52:57;38.90;34.69;41.89;;
43787;Laerm;29409;49.306;8.500;2023-04-10T02:53:57;39.94;33.90;45.17;;
43787;Laerm;29409;49.306;8.500;2023-04-10T02:54:58;40.05;34.31;44.73;;
43787;Laerm;29409;49.306;8.500;2023-04-10T02:55:58;38.11;33.97;41.14;;
43787;Laerm;29409;49.306;8.500;2023-04-10T02:56:58;38.77;34.69;42.88;;
43787;Laerm;29409;49.306;8.500;2023-04-10T02:57:58;40.06;34.31;44.39;;
43787;Laerm;29409;49.306;8.500;2023-04-10T02:58:59;39.84;35.31;44.31;;
43787;Laerm;29409;49.306;8.500;2023-04-10T02:59:59;38.40;33.44;41.22;;
43787;Laerm;29409;49.306;8.500;2023-04-10T03:00:59;38.01;33.90;41.14;;
43787;Laerm;29409;49.306;8.500;2023-04-10T03:02:00;38.07;32.93;40.43;;
43787;Laerm;29409;49.306;8.500;2023-04-10T03:03:00;38.36;32.35;43.63;;
43787;Laerm;29409;49.306;8.500;2023-04-10T03:04:01;38.56;34.31;41.46;;
43787;Laerm;29409;49.306;8.500;2023-04-10T03:05:02;38.17;31.68;40.80;;
43787;Laerm;29409;49.306;8.500;2023-04-10T03:06:03;39.15;35.04;43.09;;
43787;Laerm;29409;49.306;8.500;2023-04-10T03:07:03;38.38;34.31;40.98;;
43787;Laerm;29409;49.306;8.500;2023-04-10T03:08:03;38.38;33.90;41.53;;
43787;Laerm;29409;49.306;8.500;2023-04-10T03:09:04;37.98;33.90;40.53;;
43787;Laerm;29409;49.306;8.500;2023-04-10T03:10:04;38.04;33.44;40.80;;
43787;Laerm;29409;49.306;8.500;2023-04-10T03:11:06;39.15;34.69;42.35;;
43787;Laerm;29409;49.306;8.500;2023-04-10T03:12:06;39.11;34.69;42.13;;
43787;Laerm;29409;49.306;8.500;2023-04-10T03:13:07;38.19;34.31;44.51;;
43787;Laerm;29409;49.306;8.500;2023-04-10T03:14:07;38.09;33.90;41.14;;
43787;Laerm;29409;49.306;8.500;2023-04-10T03:15:08;38.39;34.31;45.99;;
43787;Laerm;29409;49.306;8.500;2023-04-10T03:16:09;39.32;34.69;41.96;;
43787;Laerm;29409;49.306;8.500;2023-04-10T03:17:09;40.06;35.31;47.18;;
43787;Laerm;29409;49.306;8.500;2023-04-10T03:18:11;40.04;36.45;44.03;;
43787;Laerm;29409;49.306;8.500;2023-04-10T03:19:11;39.51;35.66;44.31;;
43787;Laerm;29409;49.306;8.500;2023-04-10T03:20:11;40.24;35.94;47.55;;
43787;Laerm;29409;49.306;8.500;2023-04-10T03:21:12;40.65;35.94;48.28;;
43787;Laerm;29409;49.306;8.500;2023-04-10T03:22:12;39.52;33.90;46.23;;
43787;Laerm;29409;49.306;8.500;2023-04-10T03:23:12;38.90;34.31;47.79;;
43787;Laerm;29409;49.306;8.500;2023-04-10T03:24:14;40.37;35.66;46.65;;
43787;Laerm;29409;49.306;8.500;2023-04-10T03:25:15;39.14;34.31;47.50;;
43787;Laerm;29409;49.306;8.500;2023-04-10T03:26:15;38.72;35.04;44.87;;
43787;Laerm;29409;49.306;8.500;2023-04-10T03:27:16;38.77;34.69;47.88;;
43787;Laerm;29409;49.306;8.500;2023-04-10T03:28:16;38.74;33.44;47.91;;
43787;Laerm;29409;49.306;8.500;2023-04-10T03:29:16;38.71;33.90;48.08;;
43787;Laerm;29409;49.306;8.500;2023-04-10T03:30:18;38.62;34.31;47.18;;
43787;Laerm;29409;49.306;8.500;2023-04-10T03:31:18;42.02;35.04;47.24;;
43787;Laerm;29409;49.306;8.500;2023-04-10T03:32:19;39.63;34.69;45.77;;
43787;Laerm;29409;49.306;8.500;2023-04-10T03:33:19;38.38;34.69;47.68;;
43787;Laerm;29409;49.306;8.500;2023-04-10T03:34:19;39.37;32.35;50.14;;
43787;Laerm;29409;49.306;8.500;2023-04-10T03:35:19;38.73;34.31;47.52;;
43787;Laerm;29409;49.306;8.500;2023-04-10T03:36:20;38.39;32.93;46.43;;
43787;Laerm;29409;49.306;8.500;2023-04-10T03:37:20;39.20;34.31;44.94;;
43787;Laerm;29409;49.306;8.500;2023-04-10T03:38:20;40.12;35.36;47.81;;
43787;Laerm;29409;49.306;8.500;2023-04-10T03:39:20;39.26;35.04;46.35;;
43787;Laerm;29409;49.306;8.500;2023-04-10T03:40:22;38.75;34.69;45.54;;
43787;Laerm;29409;49.306;8.500;2023-04-10T03:41:22;40.19;35.36;49.12;;
43787;Laerm;29409;49.306;8.500;2023-04-10T03:42:23;39.99;34.69;47.30;;
43787;Laerm;29409;49.306;8.500;2023-04-10T03:43:24;39.01;34.69;45.57;;
43787;Laerm;29409;49.306;8.500;2023-04-10T03:44:24;39.16;34.69;47.86;;
43787;Laerm;29409;49.306;8.500;2023-04-10T03:45:25;39.90;35.36;46.66;;
43787;Laerm;29409;49.306;8.500;2023-04-10T03:46:25;39.80;35.66;48.55;;
43787;Laerm;29409;49.306;8.500;2023-04-10T03:47:25;39.88;35.94;48.60;;
43787;Laerm;29409;49.306;8.500;2023-04-10T03:48:26;39.97;35.94;48.15;;
43787;Laerm;29409;49.306;8.500;2023-04-10T03:49:27;39.74;35.04;46.50;;
43787;Laerm;29409;49.306;8.500;2023-04-10T03:50:27;39.10;33.90;49.03;;
43787;Laerm;29409;49.306;8.500;2023-04-10T03:51:27;39.14;35.04;47.26;;
43787;Laerm;29409;49.306;8.500;2023-04-10T03:52:28;39.20;35.04;46.25;;
43787;Laerm;29409;49.306;8.500;2023-04-10T03:53:28;40.29;35.66;52.64;;
43787;Laerm;29409;49.306;8.500;2023-04-10T03:54:28;41.40;37.70;47.63;;
43787;Laerm;29409;49.306;8.500;2023-04-10T03:55:29;39.81;34.69;48.91;;
43787;Laerm;29409;49.306;8.500;2023-04-10T03:56:29;39.88;35.94;46.84;;
43787;Laerm;29409;49.306;8.500;2023-04-10T03:57:30;40.01;35.66;46.43;;
43787;Laerm;29409;49.306;8.500;2023-04-10T03:58:30;40.11;35.04;47.96;;
43787;Laerm;29409;49.306;8.500;2023-04-10T03:59:30;39.79;35.94;48.34;;
43787;Laerm;29409;49.306;8.500;2023-04-10T04:00:30;40.21;36.20;49.82;;
43787;Laerm;29409;49.306;8.500;2023-04-10T04:01:31;40.36;35.36;51.12;;
43787;Laerm;29409;49.306;8.500;2023-04-10T04:02:32;41.45;36.20;50.17;;
43787;Laerm;29409;49.306;8.500;2023-04-10T04:03:32;41.43;36.69;54.13;;
43787;Laerm;29409;49.306;8.500;2023-04-10T04:04:32;40.65;35.94;52.03;;
43787;Laerm;29409;49.306;8.500;2023-04-10T04:05:33;40.84;35.94;50.84;;
43787;Laerm;29409;49.306;8.500;2023-04-10T04:06:33;40.57;34.69;52.32;;
43787;Laerm;29409;49.306;8.500;2023-04-10T04:07:34;40.39;35.66;52.45;;
43787;Laerm;29409;49.306;8.500;2023-04-10T04:08:34;40.58;35.04;51.49;;
43787;Laerm;29409;49.306;8.500;2023-04-10T04:09:38;42.90;36.45;51.66;;
43787;Laerm;29409;49.306;8.500;2023-04-10T04:10:40;41.05;35.36;50.65;;
43787;Laerm;29409;49.306;8.500;2023-04-10T04:11:40;41.56;35.04;52.36;;
43787;Laerm;29409;49.306;8.500;2023-04-10T04:12:41;42.43;36.69;51.31;;
43787;Laerm;29409;49.306;8.500;2023-04-10T04:13:41;42.18;36.69;51.60;;
43787;Laerm;29409;49.306;8.500;2023-04-10T04:14:42;42.19;36.69;51.82;;
43787;Laerm;29409;49.306;8.500;2023-04-10T04:15:43;41.19;36.20;51.65;;
43787;Laerm;29409;49.306;8.500;2023-04-10T04:16:44;40.39;35.94;48.83;;
43787;Laerm;29409;49.306;8.500;2023-04-10T04:17:44;41.24;36.45;50.40;;
43787;Laerm;29409;49.306;8.500;2023-04-10T04:18:45;42.22;36.20;52.94;;
43787;Laerm;29409;49.306;8.500;2023-04-10T04:19:45;42.98;37.12;51.37;;
43787;Laerm;29409;49.306;8.500;2023-04-10T04:20:45;41.93;37.12;53.39;;
43787;Laerm;29409;49.306;8.500;2023-04-10T04:21:45;42.58;35.66;52.93;;
43787;Laerm;29409;49.306;8.500;2023-04-10T04:22:46;42.68;37.52;53.48;;
43787;Laerm;29409;49.306;8.500;2023-04-10T04:23:46;42.00;36.20;49.59;;
43787;Laerm;29409;49.306;8.500;2023-04-10T04:24:46;42.12;36.69;50.47;;
43787;Laerm;29409;49.306;8.500;2023-04-10T04:25:47;42.18;36.20;51.73;;
43787;Laerm;29409;49.306;8.500;2023-04-10T04:26:48;43.30;38.37;51.30;;
43787;Laerm;29409;49.306;8.500;2023-04-10T04:27:49;41.80;36.91;51.97;;
43787;Laerm;29409;49.306;8.500;2023-04-10T04:28:49;40.85;36.20;51.04;;
43787;Laerm;29409;49.306;8.500;2023-04-10T04:29:50;41.11;35.36;48.08;;
43787;Laerm;29409;49.306;8.500;2023-04-10T04:30:50;40.93;35.66;53.42;;
43787;Laerm;29409;49.306;8.500;2023-04-10T04:31:50;40.12;35.04;43.81;;
43787;Laerm;29409;49.306;8.500;2023-04-10T04:32:51;41.08;36.91;51.82;;
43787;Laerm;29409;49.306;8.500;2023-04-10T04:33:51;40.98;36.69;53.68;;
43787;Laerm;29409;49.306;8.500;2023-04-10T04:34:51;39.96;35.66;50.26;;
43787;Laerm;29409;49.306;8.500;2023-04-10T04:35:51;39.96;36.91;45.69;;
43787;Laerm;29409;49.306;8.500;2023-04-10T04:36:52;39.63;35.66;45.80;;
43787;Laerm;29409;49.306;8.500;2023-04-10T04:37:52;41.40;35.94;52.86;;
43787;Laerm;29409;49.306;8.500;2023-04-10T04:38:53;41.99;37.12;52.97;;
43787;Laerm;29409;49.306;8.500;2023-04-10T04:39:53;41.33;36.20;51.01;;
43787;Laerm;29409;49.306;8.500;2023-04-10T04:40:53;40.90;35.66;49.57;;
43787;Laerm;29409;49.306;8.500;2023-04-10T04:41:55;42.28;35.94;53.20;;
43787;Laerm;29409;49.306;8.500;2023-04-10T04:42:55;42.05;35.36;54.38;;
43787;Laerm;29409;49.306;8.500;2023-04-10T04:43:56;43.58;35.66;55.88;;
43787;Laerm;29409;49.306;8.500;2023-04-10T04:44:56;43.05;35.04;55.56;;
43787;Laerm;29409;49.306;8.500;2023-04-10T04:45:56;43.49;35.04;59.85;;
43787;Laerm;29409;49.306;8.500;2023-04-10T04:46:56;43.44;37.70;58.57;;
43787;Laerm;29409;49.306;8.500;2023-04-10T04:47:57;41.91;36.69;53.25;;
43787;Laerm;29409;49.306;8.500;2023-04-10T04:48:57;45.96;36.69;61.48;;
43787;Laerm;29409;49.306;8.500;2023-04-10T04:49:57;40.75;35.36;52.70;;
43787;Laerm;29409;49.306;8.500;2023-04-10T04:50:57;41.38;36.69;58.25;;
43787;Laerm;29409;49.306;8.500;2023-04-10T04:51:58;42.52;37.52;57.71;;
43787;Laerm;29409;49.306;8.500;2023-04-10T04:52:58;42.31;37.32;56.68;;
43787;Laerm;29409;49.306;8.500;2023-04-10T04:53:59;42.89;37.32;56.18;;
43787;Laerm;29409;49.306;8.500;2023-04-10T04:54:59;43.01;36.20;59.26;;
43787;Laerm;29409;49.306;8.500;2023-04-10T04:56:00;41.97;35.36;61.80;;
43787;Laerm;29409;49.306;8.500;2023-04-10T04:57:00;43.33;37.12;59.64;;
43787;Laerm;29409;49.306;8.500;2023-04-10T04:58:00;42.83;37.52;53.21;;
43787;Laerm;29409;49.306;8.500;2023-04-10T04:59:00;41.16;37.52;49.55;;
43787;Laerm;29409;49.306;8.500;2023-04-10T05:00:01;43.87;36.91;61.34;;
43787;Laerm;29409;49.306;8.500;2023-04-10T05:01:01;44.70;37.12;61.56;;
43787;Laerm;29409;49.306;8.500;2023-04-10T05:02:01;41.09;36.91;55.33;;
43787;Laerm;29409;49.306;8.500;2023-04-10T05:03:02;40.79;36.20;51.07;;
43787;Laerm;29409;49.306;8.500;2023-04-10T05:04:02;42.80;37.32;53.45;;
43787;Laerm;29409;49.306;8.500;2023-04-10T05:05:02;41.54;36.69;49.30;;
43787;Laerm;29409;49.306;8.500;2023-04-10T05:06:03;50.52;36.91;69.09;;
43787;Laerm;29409;49.306;8.500;2023-04-10T05:07:03;40.04;36.20;48.73;;
43787;Laerm;29409;49.306;8.500;2023-04-10T05:08:03;40.95;36.45;47.79;;
43787;Laerm;29409;49.306;8.500;2023-04-10T05:09:04;40.04;35.36;45.63;;
43787;Laerm;29409;49.306;8.500;2023-04-10T05:10:04;40.34;36.20;46.57;;
43787;Laerm;29409;49.306;8.500;2023-04-10T05:11:05;39.91;35.66;51.08;;
43787;Laerm;29409;49.306;8.500;2023-04-10T05:12:05;40.39;36.69;48.15;;
43787;Laerm;29409;49.306;8.500;2023-04-10T05:13:06;39.90;35.36;46.62;;
43787;Laerm;29409;49.306;8.500;2023-04-10T05:14:06;40.31;35.04;47.14;;
43787;Laerm;29409;49.306;8.500;2023-04-10T05:15:06;42.58;38.37;47.30;;
43787;Laerm;29409;49.306;8.500;2023-04-10T05:16:07;42.75;37.88;48.34;;
43787;Laerm;29409;49.306;8.500;2023-04-10T05:17:07;42.63;38.99;49.29;;
43787;Laerm;29409;49.306;8.500;2023-04-10T05:18:07;41.00;37.32;46.45;;
43787;Laerm;29409;49.306;8.500;2023-04-10T05:19:08;42.18;38.21;52.05;;
43787;Laerm;29409;49.306;8.500;2023-04-10T05:20:08;41.40;38.05;47.24;;
43787;Laerm;29409;49.306;8.500;2023-04-10T05:21:09;41.89;37.35;57.96;;
43787;Laerm;29409;49.306;8.500;2023-04-10T05:22:10;41.15;37.12;48.49;;
43787;Laerm;29409;49.306;8.500;2023-04-10T05:23:10;40.86;37.12;46.38;;
43787;Laerm;29409;49.306;8.500;2023-04-10T05:24:10;41.63;37.70;48.76;;
43787;Laerm;29409;49.306;8.500;2023-04-10T05:25:10;40.75;36.91;49.02;;
43787;Laerm;29409;49.306;8.500;2023-04-10T05:26:12;41.73;37.12;52.10;;
43787;Laerm;29409;49.306;8.500;2023-04-10T05:27:12;42.11;38.05;50.12;;
43787;Laerm;29409;49.306;8.500;2023-04-10T05:28:12;40.49;36.69;50.15;;
43787;Laerm;29409;49.306;8.500;2023-04-10T05:29:13;40.37;36.45;44.35;;
43787;Laerm;29409;49.306;8.500;2023-04-10T05:30:13;39.93;36.91;42.53;;
43787;Laerm;29409;49.306;8.500;2023-04-10T05:31:13;46.18;37.70;61.80;;
43787;Laerm;29409;49.306;8.500;2023-04-10T05:32:13;43.22;37.70;48.78;;
43787;Laerm;29409;49.306;8.500;2023-04-10T05:33:15;41.36;37.70;46.20;;
43787;Laerm;29409;49.306;8.500;2023-04-10T05:34:15;41.01;36.45;47.79;;
43787;Laerm;29409;49.306;8.500;2023-04-10T05:35:16;41.87;37.12;50.38;;
43787;Laerm;29409;49.306;8.500;2023-04-10T05:36:16;42.11;37.12;54.59;;
43787;Laerm;29409;49.306;8.500;2023-04-10T05:37:17;41.46;38.37;53.71;;
43787;Laerm;29409;49.306;8.500;2023-04-10T05:38:17;42.08;37.88;47.95;;
43787;Laerm;29409;49.306;8.500;2023-04-10T05:39:17;40.80;36.20;46.78;;
43787;Laerm;29409;49.306;8.500;2023-04-10T05:40:18;41.12;37.52;50.38;;
43787;Laerm;29409;49.306;8.500;2023-04-10T05:41:19;41.68;37.52;49.73;;
43787;Laerm;29409;49.306;8.500;2023-04-10T05:42:19;43.65;36.45;62.69;;
43787;Laerm;29409;49.306;8.500;2023-04-10T05:43:19;40.80;36.20;49.81;;
43787;Laerm;29409;49.306;8.500;2023-04-10T05:44:20;40.25;36.45;48.70;;
43787;Laerm;29409;49.306;8.500;2023-04-10T05:45:21;40.64;36.69;45.51;;
43787;Laerm;29409;49.306;8.500;2023-04-10T05:46:21;41.48;36.91;50.56;;
43787;Laerm;29409;49.306;8.500;2023-04-10T05:47:21;40.29;36.20;50.14;;
43787;Laerm;29409;49.306;8.500;2023-04-10T05:48:22;40.42;35.94;47.93;;
43787;Laerm;29409;49.306;8.500;2023-04-10T05:49:25;41.71;38.52;44.49;;
43787;Laerm;29409;49.306;8.500;2023-04-10T05:50:25;42.13;39.08;50.30;;
43787;Laerm;29409;49.306;8.500;2023-04-10T05:51:25;40.89;36.20;52.22;;
43787;Laerm;29409;49.306;8.500;2023-04-10T05:52:26;40.27;36.20;47.17;;
43787;Laerm;29409;49.306;8.500;2023-04-10T05:53:30;40.73;36.69;49.40;;
43787;Laerm;29409;49.306;8.500;2023-04-10T05:54:30;41.38;37.52;52.38;;
43787;Laerm;29409;49.306;8.500;2023-04-10T05:55:30;41.72;36.91;56.86;;